Time;durP1;ratioP1;P1;durP2;ratioP2;P2;SDS_P1;SDS_P2;PMS_P1;PMS_P2;Temp;Humidity;BMP_temperature;BMP_pressure;BME280_temperature;BME280_humidity;BME280_pressure;Samples;Min_cycle;Max_cycle;Signal;HPM_P1;HPM_P2
2022/04/28 00:00:12;;;;;;;12.15;3.70;;;5.10;99.90;;;;;;5032268;28;20095;-67
2022/04/28 00:02:39;;;;;;;10.77;3.95;;;5.00;99.90;;;;;;5025219;28;20125;-68
2022/04/28 00:05:05;;;;;;;9.65;4.13;;;5.00;99.90;;;;;;5033252;28;20041;-68
2022/04/28 00:07:32;;;;;;;9.38;4.43;;;4.90;99.90;;;;;;5033625;28;20473;-68
2022/04/28 00:09:57;;;;;;;13.52;4.60;;;4.90;99.90;;;;;;5015583;28;20041;-68
2022/04/28 00:12:23;;;;;;;10.43;4.47;;;4.80;99.90;;;;;;5033145;28;20035;-67
2022/04/28 00:14:49;;;;;;;7.97;4.10;;;4.80;99.90;;;;;;5031958;28;20073;-68
2022/04/28 00:17:14;;;;;;;14.20;4.47;;;4.80;99.90;;;;;;5031857;28;20111;-69
2022/04/28 00:19:40;;;;;;;11.95;4.82;;;4.80;99.90;;;;;;5030579;28;20397;-68
2022/04/28 00:22:06;;;;;;;11.55;4.30;;;4.70;99.90;;;;;;5031937;28;20055;-68
2022/04/28 00:24:32;;;;;;;12.25;4.57;;;4.70;99.90;;;;;;5031150;28;20136;-68
2022/04/28 00:26:58;;;;;;;11.13;4.70;;;4.60;99.90;;;;;;5031113;28;20037;-68
2022/04/28 00:29:23;;;;;;;9.63;4.18;;;4.60;99.90;;;;;;5032888;28;20061;-68
2022/04/28 00:31:49;;;;;;;8.85;4.15;;;4.60;99.90;;;;;;5031958;28;20057;-68
2022/04/28 00:34:15;;;;;;;9.48;4.43;;;4.50;99.90;;;;;;5030905;28;20049;-68
2022/04/28 00:36:41;;;;;;;14.32;4.72;;;4.50;99.90;;;;;;5031975;28;20413;-68
2022/04/28 00:39:07;;;;;;;8.63;4.57;;;4.50;99.90;;;;;;5029762;28;20452;-68
2022/04/28 00:41:32;;;;;;;10.02;4.65;;;4.40;99.90;;;;;;5031730;28;20041;-68
2022/04/28 00:43:59;;;;;;;11.85;5.18;;;4.40;99.90;;;;;;5030743;28;20463;-68
2022/04/28 00:46:25;;;;;;;9.63;4.63;;;4.40;99.90;;;;;;5014325;28;20049;-68
2022/04/28 00:51:35;;;;;;;10.23;5.25;;;4.30;99.90;;;;;;5032935;28;20139;-68
2022/04/28 00:54:03;;;;;;;11.88;4.88;;;4.20;99.90;;;;;;5029639;28;20038;-68
2022/04/28 00:56:30;;;;;;;13.90;5.20;;;4.20;99.90;;;;;;5031412;28;20041;-67
2022/04/28 00:59:02;;;;;;;13.32;5.03;;;4.10;99.90;;;;;;5031072;28;20041;-68
2022/04/28 01:01:32;;;;;;;8.32;4.85;;;4.10;99.90;;;;;;5031550;28;20045;-68
2022/04/28 01:03:58;;;;;;;10.05;4.75;;;4.10;99.90;;;;;;5028258;28;20046;-68
2022/04/28 01:06:24;;;;;;;8.70;5.07;;;4.00;99.90;;;;;;5032866;28;20036;-68
2022/04/28 01:08:50;;;;;;;16.30;5.72;;;4.00;99.90;;;;;;5030727;28;20042;-68
2022/04/28 01:11:16;;;;;;;9.52;4.70;;;4.00;99.90;;;;;;5032216;28;20485;-68
2022/04/28 01:13:43;;;;;;;11.90;5.32;;;3.90;99.90;;;;;;5032044;28;20052;-68
2022/04/28 01:16:09;;;;;;;10.93;5.78;;;3.90;99.90;;;;;;5030961;28;20505;-68
2022/04/28 01:18:35;;;;;;;15.05;6.50;;;3.90;99.90;;;;;;5013693;28;20060;-68
2022/04/28 01:21:04;;;;;;;14.95;7.00;;;3.90;99.90;;;;;;5030893;28;20048;-68
2022/04/28 01:23:34;;;;;;;13.80;7.30;;;3.80;99.90;;;;;;5013811;28;20049;-68
2022/04/28 01:26:01;;;;;;;15.30;7.20;;;3.90;99.90;;;;;;5030244;28;20041;-68
2022/04/28 01:28:27;;;;;;;18.92;7.03;;;3.90;99.90;;;;;;5032072;28;20394;-68
2022/04/28 01:30:53;;;;;;;15.43;7.53;;;3.90;99.90;;;;;;5031467;28;20033;-68
2022/04/28 01:33:19;;;;;;;14.13;7.35;;;3.80;99.90;;;;;;5029798;28;20504;-68
2022/04/28 01:35:45;;;;;;;12.25;6.55;;;3.80;99.90;;;;;;5029764;28;20053;-68
2022/04/28 01:38:10;;;;;;;14.85;7.68;;;3.80;99.90;;;;;;5030127;28;20214;-68
2022/04/28 01:40:36;;;;;;;11.82;6.97;;;3.90;99.90;;;;;;5030286;28;20128;-68
2022/04/28 01:43:02;;;;;;;12.27;7.55;;;3.90;99.90;;;;;;5029998;28;20103;-68
2022/04/28 01:45:28;;;;;;;17.08;7.85;;;4.00;99.90;;;;;;5029679;28;20056;-69
2022/04/28 01:47:53;;;;;;;11.32;7.78;;;4.10;99.90;;;;;;5029096;28;20535;-69
2022/04/28 01:50:19;;;;;;;15.00;7.70;;;4.20;99.90;;;;;;5030154;28;20432;-69
2022/04/28 01:55:31;;;;;;;10.93;7.23;;;4.30;99.90;;;;;;5030024;28;20056;-68
2022/04/28 01:57:57;;;;;;;12.07;8.00;;;4.50;99.90;;;;;;5027534;28;20049;-68
2022/04/28 02:00:23;;;;;;;10.63;6.85;;;4.50;99.90;;;;;;5031249;28;20140;-68
2022/04/28 02:02:49;;;;;;;11.55;7.70;;;4.60;99.90;;;;;;5028609;28;20052;-68
2022/04/28 02:05:15;;;;;;;13.40;8.20;;;4.60;99.90;;;;;;5029785;28;20144;-69
2022/04/28 02:07:42;;;;;;;12.57;8.13;;;4.70;99.90;;;;;;5031167;28;20046;-69
2022/04/28 02:10:08;;;;;;;17.23;7.80;;;4.80;99.90;;;;;;5013428;28;20033;-69
2022/04/28 02:12:34;;;;;;;10.82;8.48;;;4.80;99.90;;;;;;5029363;28;20119;-68
2022/04/28 02:14:59;;;;;;;10.68;7.28;;;4.80;99.90;;;;;;5029509;28;20053;-68
2022/04/28 02:17:28;;;;;;;14.50;8.05;;;4.90;99.90;;;;;;5029459;28;20057;-68
2022/04/28 02:19:54;;;;;;;11.63;7.25;;;4.90;99.90;;;;;;5028640;28;20524;-68
2022/04/28 02:22:21;;;;;;;11.80;7.15;;;5.00;99.90;;;;;;5030860;28;20367;-68
2022/04/28 02:24:47;;;;;;;13.45;7.88;;;5.10;99.90;;;;;;5029244;28;20072;-68
2022/04/28 02:27:13;;;;;;;12.52;6.82;;;5.10;99.90;;;;;;5029336;28;20037;-68
2022/04/28 02:29:39;;;;;;;11.93;6.78;;;5.20;99.90;;;;;;5030872;28;20449;-68
2022/04/28 02:32:05;;;;;;;11.13;6.82;;;5.20;99.90;;;;;;5030870;28;20042;-68
2022/04/28 02:34:31;;;;;;;13.40;6.68;;;5.30;99.90;;;;;;5028344;28;20095;-68
2022/04/28 02:36:57;;;;;;;11.20;6.30;;;5.40;99.90;;;;;;5029439;28;20049;-68
2022/04/28 02:39:23;;;;;;;10.88;6.60;;;5.50;99.90;;;;;;5029014;28;20099;-68
2022/04/28 02:41:49;;;;;;;12.88;5.40;;;5.50;99.90;;;;;;5030756;28;20476;-68
2022/04/28 02:44:15;;;;;;;9.07;5.53;;;5.60;99.90;;;;;;5011968;28;20278;-68
2022/04/28 02:46:48;;;;;;;9.68;5.32;;;5.70;99.90;;;;;;5028847;28;20052;-68
2022/04/28 02:49:17;;;;;;;9.35;6.00;;;5.80;99.90;;;;;;5028420;28;20037;-68
2022/04/28 02:51:42;;;;;;;15.40;6.18;;;5.80;99.90;;;;;;5030823;28;20069;-68
2022/04/28 02:54:09;;;;;;;10.80;6.65;;;5.80;99.90;;;;;;5028047;28;20084;-69
2022/04/28 02:56:35;;;;;;;9.65;6.47;;;5.80;99.90;;;;;;5029273;28;20099;-69
2022/04/28 02:59:01;;;;;;;12.02;7.20;;;5.80;99.90;;;;;;5030239;28;20488;-67
2022/04/28 03:01:27;;;;;;;8.23;6.55;;;5.80;99.90;;;;;;5030530;28;20040;-68
2022/04/28 03:03:53;;;;;;;11.32;6.55;;;5.90;99.90;;;;;;5029327;28;20073;-67
2022/04/28 03:11:50;;;;;;;10.55;6.60;;;5.90;99.90;;;;;;5029141;28;20369;-68
2022/04/28 03:14:16;;;;;;;12.85;6.55;;;5.90;99.90;;;;;;5030261;28;20053;-67
2022/04/28 03:16:42;;;;;;;9.98;6.63;;;5.90;99.90;;;;;;5030332;28;20548;-68
2022/04/28 03:19:08;;;;;;;10.02;6.35;;;5.90;99.90;;;;;;5027641;28;20076;-68
2022/04/28 03:21:35;;;;;;;10.00;6.13;;;6.10;99.90;;;;;;5029061;28;20046;-68
2022/04/28 03:24:00;;;;;;;11.88;6.90;;;6.00;99.90;;;;;;5028531;28;20045;-68
2022/04/28 03:26:28;;;;;;;12.40;6.78;;;6.10;99.90;;;;;;5029207;28;20038;-68
2022/04/28 03:28:54;;;;;;;11.07;6.18;;;6.10;99.90;;;;;;5033967;28;20099;-68
2022/04/28 03:31:20;;;;;;;14.48;6.18;;;6.10;99.90;;;;;;5032833;28;20516;-68
2022/04/28 03:33:46;;;;;;;9.48;6.53;;;6.20;99.90;;;;;;5028097;28;20087;-68
2022/04/28 03:38:56;;;;;;;11.30;7.05;;;6.20;99.90;;;;;;5033553;28;20107;-68
2022/04/28 03:41:21;;;;;;;12.55;6.10;;;6.20;99.90;;;;;;5034416;28;20037;-68
2022/04/28 03:43:47;;;;;;;9.45;5.75;;;6.20;99.90;;;;;;5031951;28;20080;-68
2022/04/28 03:46:15;;;;;;;10.98;3.90;;;6.30;99.90;;;;;;5033344;28;20118;-68
2022/04/28 03:48:41;;;;;;;11.13;4.55;;;6.30;99.90;;;;;;5032160;28;20056;-68
2022/04/28 03:51:07;;;;;;;9.65;4.03;;;6.40;99.90;;;;;;5017833;28;20047;-68
2022/04/28 03:53:32;;;;;;;11.32;4.55;;;6.50;99.90;;;;;;5032401;28;20046;-68
2022/04/28 03:55:58;;;;;;;9.70;4.18;;;6.60;99.90;;;;;;5033627;28;20041;-68
2022/04/28 03:58:28;;;;;;;10.95;4.90;;;6.70;99.90;;;;;;5033897;28;20033;-68
2022/04/28 04:00:53;;;;;;;11.05;4.22;;;6.70;99.90;;;;;;5032342;28;20474;-68
2022/04/28 04:03:20;;;;;;;7.05;3.72;;;6.80;99.90;;;;;;5031304;28;20060;-68
2022/04/28 04:05:47;;;;;;;11.32;3.70;;;6.80;99.90;;;;;;5031848;28;20041;-68
2022/04/28 04:08:13;;;;;;;7.80;3.70;;;6.80;99.90;;;;;;5033133;28;20042;-68
2022/04/28 04:10:39;;;;;;;11.45;3.55;;;6.90;99.90;;;;;;5031023;28;20061;-68
2022/04/28 04:13:04;;;;;;;11.02;3.70;;;6.90;99.90;;;;;;5031912;28;20034;-68
2022/04/28 04:15:30;;;;;;;13.48;4.82;;;7.00;99.90;;;;;;5033299;28;20532;-68
2022/04/28 04:17:56;;;;;;;9.73;4.28;;;7.00;99.90;;;;;;5032252;28;20218;-68
2022/04/28 04:20:22;;;;;;;9.82;4.05;;;7.10;99.90;;;;;;5031949;28;20033;-68
2022/04/28 04:22:47;;;;;;;8.82;4.07;;;7.00;99.90;;;;;;5029267;28;20148;-68
2022/04/28 04:25:14;;;;;;;11.30;3.95;;;7.10;99.90;;;;;;5033018;28;20128;-68
2022/04/28 04:27:39;;;;;;;10.43;3.95;;;7.10;99.90;;;;;;5032940;28;20137;-68
2022/04/28 04:32:50;;;;;;;9.50;4.32;;;7.10;99.90;;;;;;5030603;28;20053;-68
2022/04/28 04:35:17;;;;;;;11.38;3.90;;;7.10;99.90;;;;;;5031377;28;20128;-68
2022/04/28 04:37:43;;;;;;;10.40;4.47;;;7.10;99.90;;;;;;5030557;28;20050;-69
2022/04/28 04:40:10;;;;;;;8.95;3.67;;;7.10;99.90;;;;;;5030847;28;20063;-68
2022/04/28 04:42:36;;;;;;;11.88;4.22;;;7.10;99.90;;;;;;5031100;28;20473;-68
2022/04/28 04:45:02;;;;;;;13.40;4.07;;;7.10;99.90;;;;;;5031370;28;20057;-68
2022/04/28 04:47:28;;;;;;;10.45;3.92;;;7.10;99.90;;;;;;5032297;28;20046;-68
2022/04/28 04:49:53;;;;;;;9.85;4.65;;;7.10;99.90;;;;;;5030987;28;20052;-68
2022/04/28 04:52:19;;;;;;;8.32;4.32;;;7.20;99.90;;;;;;5032580;28;20077;-68
2022/04/28 04:54:45;;;;;;;9.18;4.57;;;7.20;99.90;;;;;;5031294;28;20076;-68
2022/04/28 04:57:10;;;;;;;11.50;5.63;;;7.30;99.90;;;;;;5031144;28;20045;-68
2022/04/28 04:59:36;;;;;;;12.00;5.38;;;7.30;99.90;;;;;;5031166;28;20037;-68
2022/04/28 05:02:02;;;;;;;11.77;4.97;;;7.30;99.90;;;;;;5032126;28;20076;-68
2022/04/28 05:04:27;;;;;;;9.13;4.63;;;7.30;99.90;;;;;;5031356;28;20147;-68
2022/04/28 05:06:53;;;;;;;11.77;4.38;;;7.40;99.90;;;;;;5031072;28;20045;-68
2022/04/28 05:09:19;;;;;;;11.77;4.53;;;7.40;99.90;;;;;;5030519;28;20422;-68
2022/04/28 05:11:44;;;;;;;12.50;4.78;;;7.40;99.90;;;;;;5032613;28;20033;-68
2022/04/28 05:14:10;;;;;;;13.75;4.88;;;7.40;99.90;;;;;;5031923;28;20389;-68
2022/04/28 05:16:36;;;;;;;12.80;5.00;;;7.50;99.90;;;;;;5032618;28;20051;-68
2022/04/28 05:19:01;;;;;;;9.93;5.45;;;7.50;99.90;;;;;;5031535;28;20156;-68
2022/04/28 05:21:27;;;;;;;10.63;5.38;;;7.60;99.90;;;;;;5032428;28;20060;-68
2022/04/28 05:23:53;;;;;;;10.68;5.38;;;7.60;99.90;;;;;;5029863;28;20088;-68
2022/04/28 05:26:19;;;;;;;11.70;5.53;;;7.60;99.90;;;;;;5030808;28;20045;-68
2022/04/28 05:28:45;;;;;;;8.50;5.03;;;7.70;99.90;;;;;;5030076;28;20083;-68
2022/04/28 05:31:11;;;;;;;8.68;5.20;;;7.70;99.90;;;;;;5032033;28;20072;-68
2022/04/28 05:33:38;;;;;;;8.95;4.90;;;7.80;99.90;;;;;;5029468;28;20041;-68
2022/04/28 05:36:09;;;;;;;7.60;5.07;;;7.80;99.90;;;;;;5030480;28;20045;-68
2022/04/28 05:38:38;;;;;;;13.07;4.72;;;7.80;99.90;;;;;;5029657;28;20391;-68
2022/04/28 05:41:04;;;;;;;8.52;5.18;;;7.90;99.90;;;;;;5031964;28;20043;-68
2022/04/28 05:46:15;;;;;;;9.52;5.07;;;8.00;99.90;;;;;;5031660;28;20068;-68
2022/04/28 05:48:41;;;;;;;9.25;5.05;;;8.00;99.90;;;;;;5029557;28;20485;-68
2022/04/28 05:51:06;;;;;;;11.95;4.85;;;8.10;99.90;;;;;;5065265;28;20530;-68
2022/04/28 05:53:32;;;;;;;9.00;4.22;;;8.20;99.90;;;;;;5072349;28;20131;-68
2022/04/28 05:55:58;;;;;;;11.07;5.20;;;8.10;99.90;;;;;;5072247;28;20584;-68
2022/04/28 05:58:23;;;;;;;8.63;4.38;;;8.10;99.90;;;;;;5073536;28;20047;-68
2022/04/28 06:00:49;;;;;;;9.93;4.65;;;8.20;99.90;;;;;;5073009;28;20036;-68
2022/04/28 06:03:15;;;;;;;12.32;5.05;;;8.20;99.90;;;;;;5072545;28;20467;-68
2022/04/28 06:05:40;;;;;;;12.65;5.40;;;8.20;99.90;;;;;;5072788;28;20075;-68
2022/04/28 06:08:06;;;;;;;12.52;4.57;;;8.30;99.90;;;;;;5091439;28;20024;-68
2022/04/28 06:10:32;;;;;;;12.18;4.45;;;8.40;99.90;;;;;;5073023;28;20047;-68
2022/04/28 06:12:58;;;;;;;11.13;5.35;;;8.40;99.90;;;;;;5055741;28;20123;-68
2022/04/28 06:15:23;;;;;;;7.35;4.45;;;8.40;99.90;;;;;;5072624;28;20034;-68
2022/04/28 06:17:49;;;;;;;11.00;4.65;;;8.50;99.90;;;;;;5090782;28;20040;-68
2022/04/28 06:20:15;;;;;;;10.90;4.22;;;8.40;99.90;;;;;;5091198;28;20044;-69
2022/04/28 06:22:41;;;;;;;12.00;4.32;;;8.40;99.90;;;;;;5091298;28;20075;-68
2022/04/28 06:25:07;;;;;;;8.80;3.80;;;8.40;99.90;;;;;;5072507;28;20038;-69
2022/04/28 06:27:34;;;;;;;9.60;4.07;;;8.50;99.90;;;;;;5073349;28;20051;-68
2022/04/28 06:30:00;;;;;;;7.05;4.38;;;8.50;99.90;;;;;;5070296;28;20040;-68
2022/04/28 06:32:26;;;;;;;9.00;4.45;;;8.60;99.90;;;;;;5091213;28;20043;-68
2022/04/28 06:34:51;;;;;;;11.13;3.78;;;8.60;99.90;;;;;;5071819;28;20052;-68
2022/04/28 06:37:17;;;;;;;10.73;4.43;;;8.60;99.90;;;;;;5091074;28;20047;-68
2022/04/28 06:39:43;;;;;;;9.43;3.65;;;8.70;99.90;;;;;;5091006;28;20403;-68
2022/04/28 06:42:09;;;;;;;8.80;3.75;;;8.60;99.90;;;;;;5090441;28;20140;-68
2022/04/28 06:44:36;;;;;;;9.93;4.18;;;8.60;99.90;;;;;;5072184;28;20044;-68
2022/04/28 06:47:05;;;;;;;12.32;4.22;;;8.70;99.90;;;;;;5055124;28;20538;-68
2022/04/28 06:49:31;;;;;;;12.55;3.97;;;8.70;99.90;;;;;;5086851;28;20052;-68
2022/04/28 06:51:58;;;;;;;12.10;3.78;;;8.80;99.90;;;;;;5072446;28;20090;-68
2022/04/28 06:54:24;;;;;;;9.43;3.65;;;8.90;99.90;;;;;;5071833;28;20035;-67
2022/04/28 06:56:49;;;;;;;8.65;3.20;;;8.90;99.90;;;;;;5072663;28;20040;-67
2022/04/28 06:59:15;;;;;;;14.63;4.38;;;9.00;99.90;;;;;;5071609;28;20101;-67
2022/04/28 07:01:41;;;;;;;8.00;3.58;;;9.10;99.90;;;;;;5071641;28;20069;-68
2022/04/28 07:04:07;;;;;;;8.65;3.17;;;9.20;99.90;;;;;;5070950;28;20036;-68
2022/04/28 07:06:32;;;;;;;12.02;3.90;;;9.40;99.90;;;;;;5072272;28;20124;-67
2022/04/28 07:08:58;;;;;;;12.38;3.67;;;9.50;99.90;;;;;;5090304;28;20502;-68
2022/04/28 07:11:24;;;;;;;12.13;3.58;;;9.60;99.90;;;;;;5090532;28;20069;-68
2022/04/28 07:13:51;;;;;;;7.65;3.15;;;9.70;99.90;;;;;;5090438;28;20040;-68
2022/04/28 07:16:16;;;;;;;12.02;3.42;;;9.60;99.90;;;;;;5087332;28;20036;-68
2022/04/28 07:18:42;;;;;;;9.82;3.28;;;9.80;99.90;;;;;;5070550;28;20040;-68
2022/04/28 07:21:08;;;;;;;9.05;3.70;;;9.90;99.90;;;;;;5090231;28;20491;-68
2022/04/28 07:23:33;;;;;;;10.00;3.08;;;10.00;99.90;;;;;;5090092;28;20036;-68
2022/04/28 07:25:59;;;;;;;8.95;2.90;;;10.00;99.90;;;;;;5054611;28;20052;-68
2022/04/28 07:28:25;;;;;;;10.93;2.50;;;10.20;99.90;;;;;;5090211;28;20037;-68
2022/04/28 07:30:51;;;;;;;10.65;3.10;;;10.50;99.90;;;;;;5054629;28;20136;-68
2022/04/28 07:33:16;;;;;;;7.82;2.50;;;10.60;99.80;;;;;;5087108;28;20488;-67
2022/04/28 07:35:42;;;;;;;10.32;2.83;;;10.60;99.90;;;;;;5071506;28;20052;-68
2022/04/28 07:38:08;;;;;;;8.65;3.33;;;10.70;99.90;;;;;;5071454;28;20044;-67
2022/04/28 07:40:36;;;;;;;7.57;2.40;;;10.60;99.20;;;;;;5090258;28;20039;-68
2022/04/28 07:43:02;;;;;;;9.43;3.00;;;10.60;99.00;;;;;;5072055;28;20040;-68
2022/04/28 07:45:28;;;;;;;8.48;2.65;;;10.60;99.00;;;;;;5089415;28;20051;-68
2022/04/28 07:47:54;;;;;;;5.97;2.55;;;10.50;98.90;;;;;;5070747;28;20051;-68
2022/04/28 07:50:20;;;;;;;8.07;2.55;;;10.40;98.30;;;;;;5071594;28;20462;-67
2022/04/28 07:52:46;;;;;;;8.65;2.50;;;10.40;98.40;;;;;;5070807;28;20044;-68
2022/04/28 07:55:12;;;;;;;7.07;1.92;;;10.30;97.70;;;;;;5071729;28;20036;-68
2022/04/28 07:57:38;;;;;;;10.68;2.47;;;10.30;97.60;;;;;;5071753;28;20042;-68
2022/04/28 08:00:05;;;;;;;7.53;2.50;;;10.20;97.10;;;;;;5071539;28;20147;-68
2022/04/28 08:02:32;;;;;;;7.20;2.17;;;10.30;97.60;;;;;;5071797;28;20047;-68
2022/04/28 08:04:59;;;;;;;5.10;1.55;;;10.40;97.70;;;;;;5089432;28;20032;-68
2022/04/28 08:07:25;;;;;;;7.93;1.73;;;10.50;97.10;;;;;;5055200;28;20048;-68
2022/04/28 08:09:51;;;;;;;7.35;1.80;;;10.40;97.00;;;;;;5087350;28;20101;-68
2022/04/28 08:12:18;;;;;;;5.43;1.38;;;10.50;96.90;;;;;;5072203;28;20051;-68
2022/04/28 08:14:43;;;;;;;4.57;1.42;;;10.40;96.10;;;;;;5057416;28;20063;-68
2022/04/28 08:17:09;;;;;;;5.78;1.48;;;10.50;96.10;;;;;;5075586;28;20044;-68
2022/04/28 08:19:35;;;;;;;6.93;1.80;;;10.50;96.00;;;;;;5092365;28;20048;-68
2022/04/28 08:22:01;;;;;;;4.55;1.27;;;10.50;96.10;;;;;;5074839;28;20355;-68
2022/04/28 08:24:27;;;;;;;9.00;1.70;;;10.60;95.70;;;;;;5092856;28;20047;-68
2022/04/28 08:26:55;;;;;;;10.50;2.00;;;10.70;95.30;;;;;;5093496;28;20044;-68
2022/04/28 08:29:25;;;;;;;7.40;2.00;;;10.80;95.10;;;;;;5092936;28;20064;-68
2022/04/28 08:31:51;;;;;;;7.28;2.08;;;10.80;94.50;;;;;;5075085;28;20036;-68
2022/04/28 08:34:22;;;;;;;5.82;2.05;;;10.90;94.80;;;;;;5092044;28;20040;-68
2022/04/28 08:36:49;;;;;;;9.10;1.80;;;11.00;94.80;;;;;;5073071;28;20075;-68
2022/04/28 08:39:15;;;;;;;9.68;2.05;;;11.10;94.30;;;;;;5092649;28;20039;-68
2022/04/28 08:41:45;;;;;;;7.38;1.70;;;11.20;94.20;;;;;;5074879;28;20054;-67
2022/04/28 08:44:17;;;;;;;4.28;1.20;;;11.40;94.00;;;;;;5092137;28;20043;-68
2022/04/28 08:46:53;;;;;;;5.60;1.85;;;11.60;93.90;;;;;;5074460;28;20071;-68
2022/04/28 08:49:27;;;;;;;6.72;2.20;;;11.80;93.10;;;;;;5091791;28;20056;-68
2022/04/28 08:51:58;;;;;;;6.18;1.90;;;11.80;92.40;;;;;;5074987;28;20051;-68
2022/04/28 08:54:27;;;;;;;6.00;1.45;;;11.90;92.80;;;;;;5073204;28;20048;-68
2022/04/28 08:56:56;;;;;;;8.18;1.50;;;11.80;91.20;;;;;;5052685;28;20044;-68
2022/04/28 08:59:23;;;;;;;5.22;1.20;;;11.70;91.20;;;;;;5092287;28;20150;-68
2022/04/28 09:01:52;;;;;;;6.95;1.60;;;11.80;91.30;;;;;;5074238;28;20036;-68
2022/04/28 09:04:18;;;;;;;6.72;1.48;;;12.00;90.90;;;;;;5091624;28;20087;-68
2022/04/28 09:06:48;;;;;;;5.35;1.58;;;12.20;91.20;;;;;;5074138;28;20040;-68
2022/04/28 09:09:17;;;;;;;6.10;1.67;;;12.30;91.00;;;;;;5061953;28;20032;-68
2022/04/28 09:11:44;;;;;;;7.22;1.70;;;12.40;90.10;;;;;;5074638;28;20557;-68
2022/04/28 09:14:13;;;;;;;6.28;1.65;;;12.50;89.00;;;;;;5073984;28;20044;-69
2022/04/28 09:16:46;;;;;;;8.32;1.65;;;12.50;87.40;;;;;;5092625;28;20039;-69
2022/04/28 09:19:34;;;;;;;6.88;1.65;;;12.50;88.60;;;;;;5090506;28;20093;-67
2022/04/28 09:22:08;;;;;;;6.50;1.65;;;12.50;87.10;;;;;;5091656;28;20573;-68
2022/04/28 09:24:35;;;;;;;7.85;1.83;;;12.40;86.20;;;;;;5072968;28;20369;-69
2022/04/28 09:27:01;;;;;;;6.57;1.83;;;12.30;86.40;;;;;;5073623;28;20044;-69
2022/04/28 09:29:36;;;;;;;4.60;1.55;;;12.30;85.60;;;;;;5091848;28;20031;-69
2022/04/28 09:32:08;;;;;;;5.00;1.42;;;12.40;85.70;;;;;;5071711;28;20101;-68
2022/04/28 09:34:34;;;;;;;6.22;1.45;;;12.50;85.80;;;;;;5072817;28;20048;-68
2022/04/28 09:37:01;;;;;;;6.95;1.88;;;12.70;86.50;;;;;;5073334;28;20503;-68
2022/04/28 09:42:31;;;;;;;7.40;1.30;;;12.80;83.60;;;;;;5091685;28;20055;-68
2022/04/28 09:44:59;;;;;;;7.60;1.75;;;12.80;83.00;;;;;;5055585;28;20480;-68
2022/04/28 09:47:27;;;;;;;6.68;1.58;;;12.80;84.10;;;;;;5072507;28;20127;-68
2022/04/28 09:49:55;;;;;;;7.00;1.80;;;13.00;84.00;;;;;;5069256;28;20044;-68
2022/04/28 09:52:24;;;;;;;4.78;1.50;;;13.20;83.20;;;;;;5071173;28;20162;-69
2022/04/28 09:54:51;;;;;;;6.25;1.50;;;13.30;80.80;;;;;;5070172;28;20079;-69
2022/04/28 09:57:22;;;;;;;5.53;1.30;;;13.50;80.00;;;;;;5068724;28;20101;-69
2022/04/28 09:59:49;;;;;;;5.28;1.63;;;13.60;80.40;;;;;;5067431;28;20112;-69
2022/04/28 10:02:19;;;;;;;5.47;1.60;;;13.40;77.40;;;;;;5071243;28;20040;-69
2022/04/28 10:04:49;;;;;;;7.05;1.95;;;13.30;78.10;;;;;;5069595;28;20052;-69
2022/04/28 10:07:16;;;;;;;5.55;1.70;;;13.20;78.40;;;;;;5069495;28;20184;-69
2022/04/28 10:09:48;;;;;;;6.45;1.40;;;13.30;78.80;;;;;;5069576;28;20048;-68
2022/04/28 10:12:18;;;;;;;7.88;1.90;;;13.30;78.70;;;;;;5069543;28;20040;-68
2022/04/28 10:14:44;;;;;;;8.70;2.60;;;13.50;79.10;;;;;;5070343;28;20036;-69
2022/04/28 10:17:32;;;;;;;8.77;1.80;;;13.60;78.50;;;;;;5070942;28;20048;-69
2022/04/28 10:20:03;;;;;;;7.75;1.85;;;13.50;76.70;;;;;;5070352;28;20044;-68
2022/04/28 10:22:35;;;;;;;4.60;1.80;;;13.70;79.00;;;;;;5070343;28;20119;-68
2022/04/28 10:33:24;;;;;;;7.32;1.73;;;14.20;75.60;;;;;;5070274;28;20082;-69
2022/04/28 10:35:50;;;;;;;10.70;2.08;;;14.20;74.50;;;;;;5066484;28;20040;-68
2022/04/28 10:38:31;;;;;;;5.75;1.48;;;14.20;75.20;;;;;;5066415;28;20506;-68
2022/04/28 10:41:05;;;;;;;8.48;1.70;;;14.30;74.70;;;;;;5066634;28;20040;-69
2022/04/28 10:43:33;;;;;;;8.10;1.52;;;14.20;75.10;;;;;;5070615;28;20040;-68
2022/04/28 10:46:08;;;;;;;6.00;1.35;;;13.80;74.40;;;;;;5068536;28;20500;-69
2022/04/28 10:48:38;;;;;;;6.35;1.48;;;14.10;75.30;;;;;;5070101;28;20045;-69
2022/04/28 10:51:11;;;;;;;8.85;1.55;;;14.40;75.00;;;;;;5072383;28;20066;-69
2022/04/28 10:53:55;;;;;;;7.55;2.00;;;14.40;72.60;;;;;;5069653;28;20054;-69
2022/04/28 10:56:22;;;;;;;8.32;2.00;;;14.40;73.30;;;;;;5072097;28;20044;-69
2022/04/28 10:58:48;;;;;;;7.50;1.70;;;14.60;73.60;;;;;;5090502;28;20480;-69
2022/04/28 11:01:33;;;;;;;8.80;1.85;;;14.80;73.70;;;;;;5088037;28;20044;-69
2022/04/28 11:04:01;;;;;;;7.43;1.65;;;15.20;71.10;;;;;;5087501;28;20047;-69
2022/04/28 11:06:31;;;;;;;6.65;1.70;;;15.40;71.60;;;;;;5072288;28;20062;-69
2022/04/28 11:08:59;;;;;;;7.47;2.08;;;15.20;70.50;;;;;;5088742;28;20105;-69
2022/04/28 11:11:29;;;;;;;8.40;1.80;;;15.00;70.60;;;;;;5072311;28;20085;-69
2022/04/28 11:13:59;;;;;;;9.75;1.92;;;14.70;71.20;;;;;;5070859;28;20122;-69
2022/04/28 11:16:26;;;;;;;8.77;2.50;;;14.60;72.30;;;;;;5069686;28;20046;-69
2022/04/28 11:18:54;;;;;;;8.85;3.05;;;14.60;72.80;;;;;;5089244;28;20043;-68
2022/04/28 11:21:21;;;;;;;7.43;2.30;;;14.50;74.10;;;;;;5072060;28;20051;-69
2022/04/28 11:23:48;;;;;;;9.80;2.72;;;14.50;72.20;;;;;;5072036;28;20131;-69
2022/04/28 11:26:14;;;;;;;9.25;2.40;;;14.60;73.70;;;;;;5070907;28;20439;-69
2022/04/28 11:28:41;;;;;;;6.40;2.53;;;14.70;74.70;;;;;;5071926;28;20038;-69
2022/04/28 11:31:10;;;;;;;10.85;2.58;;;14.70;73.10;;;;;;5071092;28;20048;-69
2022/04/28 11:33:41;;;;;;;9.77;2.58;;;14.80;72.80;;;;;;5070413;28;20043;-69
2022/04/28 11:36:22;;;;;;;10.90;2.70;;;15.00;72.20;;;;;;5072007;28;20040;-69
2022/04/28 11:38:53;;;;;;;9.93;3.00;;;15.10;71.00;;;;;;5071278;28;20437;-69
2022/04/28 11:41:30;;;;;;;9.75;2.80;;;14.90;72.20;;;;;;5087031;28;20501;-69
2022/04/28 11:43:59;;;;;;;11.45;2.78;;;14.70;71.20;;;;;;5070946;28;20145;-69
2022/04/28 11:46:25;;;;;;;9.05;2.80;;;14.70;72.20;;;;;;5053957;28;20508;-69
2022/04/28 11:48:54;;;;;;;9.65;2.38;;;14.60;72.30;;;;;;5092274;28;20058;-69
2022/04/28 11:51:24;;;;;;;7.80;3.17;;;14.70;71.20;;;;;;5058963;28;20051;-69
2022/04/28 11:53:52;;;;;;;7.57;2.75;;;14.80;72.00;;;;;;5093976;28;20055;-69
2022/04/28 11:56:21;;;;;;;9.15;2.72;;;14.70;71.00;;;;;;5093793;28;20368;-69
2022/04/28 11:58:48;;;;;;;8.55;2.65;;;14.60;71.40;;;;;;5073554;28;20059;-69
2022/04/28 12:01:15;;;;;;;8.73;2.88;;;15.00;71.70;;;;;;5093452;28;20499;-70
2022/04/28 12:03:57;;;;;;;4.63;2.30;;;15.40;71.00;;;;;;5073008;28;20044;-69
2022/04/28 12:06:24;;;;;;;8.93;2.85;;;15.40;67.30;;;;;;5074462;28;20036;-69
2022/04/28 12:08:56;;;;;;;7.43;2.63;;;15.20;68.60;;;;;;5075355;28;20040;-69
2022/04/28 12:14:27;;;;;;;9.00;2.70;;;15.40;70.20;;;;;;5090653;28;20047;-69
2022/04/28 12:19:47;;;;;;;8.48;2.70;;;15.20;68.50;;;;;;5074528;28;20050;-69
2022/04/28 12:22:14;;;;;;;7.90;2.70;;;14.80;69.50;;;;;;5074689;28;20067;-69
2022/04/28 12:24:43;;;;;;;6.72;2.40;;;15.00;70.60;;;;;;5092991;28;20097;-69
2022/04/28 12:27:11;;;;;;;8.07;2.28;;;15.70;70.20;;;;;;5071495;28;20032;-69
2022/04/28 12:29:54;;;;;;;8.82;2.83;;;16.20;67.40;;;;;;5093237;28;20108;-69
2022/04/28 12:32:21;;;;;;;8.88;2.53;;;16.30;66.00;;;;;;5072742;28;20032;-69
2022/04/28 12:34:58;;;;;;;5.40;2.42;;;15.70;65.70;;;;;;5074189;28;20096;-69
2022/04/28 12:37:27;;;;;;;10.57;2.00;;;15.20;69.10;;;;;;5074562;28;20055;-69
2022/04/28 12:39:58;;;;;;;11.57;3.10;;;15.10;70.00;;;;;;5071267;28;20043;-69
2022/04/28 12:42:43;;;;;;;9.85;2.30;;;15.30;70.10;;;;;;5074190;28;20484;-69
2022/04/28 12:45:10;;;;;;;11.15;4.60;;;15.20;69.50;;;;;;5073126;28;20090;-69
2022/04/28 12:47:41;;;;;;;9.43;2.67;;;15.40;69.80;;;;;;5072347;28;20114;-69
2022/04/28 12:50:21;;;;;;;8.35;2.65;;;16.10;68.10;;;;;;5091911;28;20113;-69
2022/04/28 12:52:47;;;;;;;7.70;2.03;;;16.90;65.10;;;;;;5073086;28;20049;-70
2022/04/28 12:55:13;;;;;;;11.30;2.17;;;16.60;64.90;;;;;;5092689;28;20456;-70
2022/04/28 12:57:40;;;;;;;8.40;2.30;;;16.30;65.70;;;;;;5092763;28;20048;-70
2022/04/28 13:00:10;;;;;;;8.82;2.30;;;15.80;66.60;;;;;;5073455;28;20086;-70
2022/04/28 13:02:36;;;;;;;10.20;2.40;;;15.70;67.80;;;;;;5074125;28;20531;-70
2022/04/28 13:05:12;;;;;;;9.18;2.42;;;15.60;67.90;;;;;;5091127;28;20119;-70
2022/04/28 13:07:39;;;;;;;8.35;2.30;;;15.50;68.00;;;;;;5092776;28;20415;-70
2022/04/28 13:10:06;;;;;;;11.38;2.78;;;15.30;67.40;;;;;;5054096;28;20041;-70
2022/04/28 13:12:32;;;;;;;6.28;1.52;;;14.70;67.80;;;;;;5071231;28;20075;-70
2022/04/28 13:14:58;;;;;;;6.63;1.85;;;14.60;69.10;;;;;;5074101;28;20078;-70
2022/04/28 13:17:25;;;;;;;10.15;2.25;;;14.80;68.40;;;;;;5092547;28;20115;-70
2022/04/28 13:19:50;;;;;;;8.48;2.33;;;14.70;70.20;;;;;;5073092;28;20123;-70
2022/04/28 13:22:16;;;;;;;6.50;1.70;;;14.40;69.80;;;;;;5092292;28;20134;-69
2022/04/28 13:24:42;;;;;;;7.90;1.98;;;13.90;71.70;;;;;;5072241;28;20434;-70